sensor_id;sensor_type;location;lat;lon;timestamp;P1;durP1;ratioP1;P2;durP2;ratioP2
18568;SDS011;14780;48.316;-1.050;2023-02-12T00:01:40;3.10;;;2.08;;
18568;SDS011;14780;48.316;-1.050;2023-02-12T00:04:24;2.92;;;2.10;;
18568;SDS011;14780;48.316;-1.050;2023-02-12T00:07:09;2.05;;;1.65;;
18568;SDS011;14780;48.316;-1.050;2023-02-12T00:09:54;3.42;;;2.00;;
18568;SDS011;14780;48.316;-1.050;2023-02-12T00:12:39;2.72;;;2.10;;
18568;SDS011;14780;48.316;-1.050;2023-02-12T00:15:24;2.80;;;1.83;;
18568;SDS011;14780;48.316;-1.050;2023-02-12T00:18:08;3.25;;;2.00;;
18568;SDS011;14780;48.316;-1.050;2023-02-12T00:20:53;2.92;;;1.80;;
18568;SDS011;14780;48.316;-1.050;2023-02-12T00:23:41;2.38;;;1.90;;
18568;SDS011;14780;48.316;-1.050;2023-02-12T00:26:26;3.95;;;1.95;;
18568;SDS011;14780;48.316;-1.050;2023-02-12T00:29:11;2.80;;;1.75;;
18568;SDS011;14780;48.316;-1.050;2023-02-12T00:31:55;4.57;;;2.08;;
18568;SDS011;14780;48.316;-1.050;2023-02-12T00:34:40;3.33;;;2.00;;
18568;SDS011;14780;48.316;-1.050;2023-02-12T00:37:25;2.00;;;1.80;;
18568;SDS011;14780;48.316;-1.050;2023-02-12T00:40:09;2.22;;;1.73;;
18568;SDS011;14780;48.316;-1.050;2023-02-12T00:42:54;2.30;;;1.88;;
18568;SDS011;14780;48.316;-1.050;2023-02-12T00:45:39;2.95;;;1.80;;
18568;SDS011;14780;48.316;-1.050;2023-02-12T00:48:24;3.78;;;2.10;;
18568;SDS011;14780;48.316;-1.050;2023-02-12T00:51:08;3.15;;;2.10;;
18568;SDS011;14780;48.316;-1.050;2023-02-12T00:53:54;2.60;;;1.80;;
18568;SDS011;14780;48.316;-1.050;2023-02-12T00:56:38;2.25;;;1.80;;
18568;SDS011;14780;48.316;-1.050;2023-02-12T00:59:23;3.58;;;1.88;;
18568;SDS011;14780;48.316;-1.050;2023-02-12T01:02:08;2.83;;;1.90;;
18568;SDS011;14780;48.316;-1.050;2023-02-12T01:04:53;2.33;;;1.90;;
18568;SDS011;14780;48.316;-1.050;2023-02-12T01:07:38;3.75;;;1.95;;
18568;SDS011;14780;48.316;-1.050;2023-02-12T01:10:23;2.53;;;2.03;;
18568;SDS011;14780;48.316;-1.050;2023-02-12T01:13:11;2.60;;;2.22;;
18568;SDS011;14780;48.316;-1.050;2023-02-12T01:16:16;2.47;;;2.05;;
18568;SDS011;14780;48.316;-1.050;2023-02-12T01:19:05;3.03;;;2.25;;
18568;SDS011;14780;48.316;-1.050;2023-02-12T01:21:50;3.20;;;2.20;;
18568;SDS011;14780;48.316;-1.050;2023-02-12T01:24:34;3.15;;;2.15;;
18568;SDS011;14780;48.316;-1.050;2023-02-12T01:27:19;3.35;;;2.35;;
18568;SDS011;14780;48.316;-1.050;2023-02-12T01:30:04;3.40;;;2.30;;
18568;SDS011;14780;48.316;-1.050;2023-02-12T01:32:51;2.88;;;2.15;;
18568;SDS011;14780;48.316;-1.050;2023-02-12T01:35:37;2.72;;;2.13;;
18568;SDS011;14780;48.316;-1.050;2023-02-12T01:38:22;2.63;;;2.00;;
18568;SDS011;14780;48.316;-1.050;2023-02-12T01:41:08;3.28;;;2.40;;
18568;SDS011;14780;48.316;-1.050;2023-02-12T01:46:59;3.42;;;2.33;;
18568;SDS011;14780;48.316;-1.050;2023-02-12T01:49:46;3.20;;;2.40;;
18568;SDS011;14780;48.316;-1.050;2023-02-12T01:52:32;4.35;;;2.55;;
18568;SDS011;14780;48.316;-1.050;2023-02-12T01:55:19;2.80;;;2.13;;
18568;SDS011;14780;48.316;-1.050;2023-02-12T01:58:04;2.75;;;2.25;;
18568;SDS011;14780;48.316;-1.050;2023-02-12T02:00:50;3.00;;;2.47;;
18568;SDS011;14780;48.316;-1.050;2023-02-12T02:03:36;3.80;;;2.40;;
18568;SDS011;14780;48.316;-1.050;2023-02-12T02:06:25;3.78;;;2.40;;
18568;SDS011;14780;48.316;-1.050;2023-02-12T02:09:16;3.70;;;2.50;;
18568;SDS011;14780;48.316;-1.050;2023-02-12T02:12:03;3.30;;;2.47;;
18568;SDS011;14780;48.316;-1.050;2023-02-12T02:15:07;2.85;;;2.25;;
18568;SDS011;14780;48.316;-1.050;2023-02-12T02:27:02;2.65;;;2.28;;
18568;SDS011;14780;48.316;-1.050;2023-02-12T02:36:23;3.10;;;2.40;;
18568;SDS011;14780;48.316;-1.050;2023-02-12T02:39:24;3.33;;;2.53;;
18568;SDS011;14780;48.316;-1.050;2023-02-12T02:45:13;3.58;;;2.47;;
18568;SDS011;14780;48.316;-1.050;2023-02-12T02:48:03;3.75;;;2.53;;
18568;SDS011;14780;48.316;-1.050;2023-02-12T02:50:56;3.22;;;2.50;;
18568;SDS011;14780;48.316;-1.050;2023-02-12T02:56:54;3.00;;;2.33;;
18568;SDS011;14780;48.316;-1.050;2023-02-12T02:59:51;3.60;;;2.60;;
18568;SDS011;14780;48.316;-1.050;2023-02-12T03:02:42;3.90;;;2.80;;
18568;SDS011;14780;48.316;-1.050;2023-02-12T03:05:41;3.05;;;2.55;;
18568;SDS011;14780;48.316;-1.050;2023-02-12T03:08:34;4.20;;;2.90;;
18568;SDS011;14780;48.316;-1.050;2023-02-12T03:11:25;3.15;;;2.40;;
18568;SDS011;14780;48.316;-1.050;2023-02-12T03:14:17;4.10;;;2.80;;
18568;SDS011;14780;48.316;-1.050;2023-02-12T03:20:05;6.43;;;2.95;;
18568;SDS011;14780;48.316;-1.050;2023-02-12T03:23:02;3.95;;;2.72;;
18568;SDS011;14780;48.316;-1.050;2023-02-12T03:26:05;4.05;;;2.90;;
18568;SDS011;14780;48.316;-1.050;2023-02-12T03:28:54;4.45;;;3.08;;
18568;SDS011;14780;48.316;-1.050;2023-02-12T03:44:56;4.60;;;2.97;;
18568;SDS011;14780;48.316;-1.050;2023-02-12T03:54:21;3.90;;;2.78;;
18568;SDS011;14780;48.316;-1.050;2023-02-12T03:57:08;3.92;;;3.08;;
18568;SDS011;14780;48.316;-1.050;2023-02-12T03:59:57;4.78;;;3.17;;
18568;SDS011;14780;48.316;-1.050;2023-02-12T04:02:44;3.97;;;2.90;;
18568;SDS011;14780;48.316;-1.050;2023-02-12T04:05:29;4.38;;;3.28;;
18568;SDS011;14780;48.316;-1.050;2023-02-12T04:08:14;4.13;;;2.70;;
18568;SDS011;14780;48.316;-1.050;2023-02-12T04:11:06;4.22;;;2.95;;
18568;SDS011;14780;48.316;-1.050;2023-02-12T04:16:59;4.10;;;3.33;;
18568;SDS011;14780;48.316;-1.050;2023-02-12T04:20:40;3.60;;;2.70;;
18568;SDS011;14780;48.316;-1.050;2023-02-12T04:26:15;4.63;;;3.20;;
18568;SDS011;14780;48.316;-1.050;2023-02-12T04:29:20;3.78;;;2.92;;
18568;SDS011;14780;48.316;-1.050;2023-02-12T04:32:29;3.60;;;2.65;;
18568;SDS011;14780;48.316;-1.050;2023-02-12T04:35:22;3.75;;;3.00;;
18568;SDS011;14780;48.316;-1.050;2023-02-12T04:38:14;4.32;;;2.90;;
18568;SDS011;14780;48.316;-1.050;2023-02-12T04:43:49;3.40;;;2.67;;
18568;SDS011;14780;48.316;-1.050;2023-02-12T04:46:34;3.33;;;2.60;;
18568;SDS011;14780;48.316;-1.050;2023-02-12T04:49:19;3.70;;;2.75;;
18568;SDS011;14780;48.316;-1.050;2023-02-12T04:52:05;3.97;;;2.80;;
18568;SDS011;14780;48.316;-1.050;2023-02-12T04:54:51;4.82;;;2.80;;
18568;SDS011;14780;48.316;-1.050;2023-02-12T04:57:35;5.05;;;2.85;;
18568;SDS011;14780;48.316;-1.050;2023-02-12T05:00:20;2.83;;;2.40;;
18568;SDS011;14780;48.316;-1.050;2023-02-12T05:03:05;5.93;;;2.70;;
18568;SDS011;14780;48.316;-1.050;2023-02-12T05:05:49;4.25;;;2.80;;
18568;SDS011;14780;48.316;-1.050;2023-02-12T05:08:34;2.97;;;2.45;;
18568;SDS011;14780;48.316;-1.050;2023-02-12T05:11:19;3.85;;;2.80;;
18568;SDS011;14780;48.316;-1.050;2023-02-12T05:14:03;2.90;;;2.47;;
18568;SDS011;14780;48.316;-1.050;2023-02-12T05:16:48;3.83;;;2.70;;
18568;SDS011;14780;48.316;-1.050;2023-02-12T05:19:33;3.28;;;2.58;;
18568;SDS011;14780;48.316;-1.050;2023-02-12T05:22:18;3.75;;;2.67;;
18568;SDS011;14780;48.316;-1.050;2023-02-12T05:25:03;2.50;;;2.15;;
18568;SDS011;14780;48.316;-1.050;2023-02-12T05:27:49;3.30;;;2.30;;
18568;SDS011;14780;48.316;-1.050;2023-02-12T05:30:33;3.25;;;2.58;;
18568;SDS011;14780;48.316;-1.050;2023-02-12T05:33:18;2.88;;;2.45;;
18568;SDS011;14780;48.316;-1.050;2023-02-12T05:36:09;3.42;;;2.40;;
18568;SDS011;14780;48.316;-1.050;2023-02-12T05:38:57;4.03;;;2.33;;
18568;SDS011;14780;48.316;-1.050;2023-02-12T05:41:43;3.40;;;2.50;;
18568;SDS011;14780;48.316;-1.050;2023-02-12T05:44:27;2.72;;;2.25;;
18568;SDS011;14780;48.316;-1.050;2023-02-12T05:47:12;3.33;;;2.47;;
18568;SDS011;14780;48.316;-1.050;2023-02-12T05:49:56;3.00;;;2.40;;
18568;SDS011;14780;48.316;-1.050;2023-02-12T05:52:41;2.60;;;2.10;;
18568;SDS011;14780;48.316;-1.050;2023-02-12T05:55:25;3.40;;;2.58;;
18568;SDS011;14780;48.316;-1.050;2023-02-12T05:58:11;2.60;;;2.05;;
18568;SDS011;14780;48.316;-1.050;2023-02-12T06:00:56;3.03;;;2.20;;
18568;SDS011;14780;48.316;-1.050;2023-02-12T06:03:40;2.65;;;1.95;;
18568;SDS011;14780;48.316;-1.050;2023-02-12T06:06:26;2.80;;;2.15;;
18568;SDS011;14780;48.316;-1.050;2023-02-12T06:09:12;3.58;;;2.45;;
18568;SDS011;14780;48.316;-1.050;2023-02-12T06:11:57;2.38;;;1.98;;
18568;SDS011;14780;48.316;-1.050;2023-02-12T06:14:42;2.50;;;2.10;;
18568;SDS011;14780;48.316;-1.050;2023-02-12T06:17:27;3.60;;;2.40;;
18568;SDS011;14780;48.316;-1.050;2023-02-12T06:20:12;3.55;;;2.10;;
18568;SDS011;14780;48.316;-1.050;2023-02-12T06:22:56;2.88;;;2.10;;
18568;SDS011;14780;48.316;-1.050;2023-02-12T06:25:41;2.65;;;2.17;;
18568;SDS011;14780;48.316;-1.050;2023-02-12T06:28:25;3.45;;;2.30;;
18568;SDS011;14780;48.316;-1.050;2023-02-12T06:31:29;2.85;;;2.10;;
18568;SDS011;14780;48.316;-1.050;2023-02-12T06:34:15;2.30;;;2.10;;
18568;SDS011;14780;48.316;-1.050;2023-02-12T06:37:00;2.70;;;2.10;;
18568;SDS011;14780;48.316;-1.050;2023-02-12T06:39:45;3.60;;;2.22;;
18568;SDS011;14780;48.316;-1.050;2023-02-12T06:42:29;2.20;;;1.90;;
18568;SDS011;14780;48.316;-1.050;2023-02-12T06:45:14;2.13;;;1.90;;
18568;SDS011;14780;48.316;-1.050;2023-02-12T06:47:59;2.63;;;1.88;;
18568;SDS011;14780;48.316;-1.050;2023-02-12T06:50:43;2.17;;;1.80;;
18568;SDS011;14780;48.316;-1.050;2023-02-12T06:53:28;2.42;;;1.80;;
18568;SDS011;14780;48.316;-1.050;2023-02-12T06:56:13;2.95;;;1.55;;
18568;SDS011;14780;48.316;-1.050;2023-02-12T06:58:58;2.25;;;1.80;;
18568;SDS011;14780;48.316;-1.050;2023-02-12T07:01:43;2.00;;;1.80;;
18568;SDS011;14780;48.316;-1.050;2023-02-12T07:04:28;2.80;;;1.90;;
18568;SDS011;14780;48.316;-1.050;2023-02-12T07:07:13;2.47;;;1.90;;
18568;SDS011;14780;48.316;-1.050;2023-02-12T07:09:58;2.03;;;1.70;;
18568;SDS011;14780;48.316;-1.050;2023-02-12T07:12:43;2.55;;;1.90;;
18568;SDS011;14780;48.316;-1.050;2023-02-12T07:15:28;2.22;;;1.83;;
18568;SDS011;14780;48.316;-1.050;2023-02-12T07:18:13;2.28;;;1.98;;
18568;SDS011;14780;48.316;-1.050;2023-02-12T07:20:58;2.38;;;1.70;;
18568;SDS011;14780;48.316;-1.050;2023-02-12T07:23:47;2.13;;;1.65;;
18568;SDS011;14780;48.316;-1.050;2023-02-12T07:26:34;2.28;;;1.90;;
18568;SDS011;14780;48.316;-1.050;2023-02-12T07:29:18;2.17;;;1.98;;
18568;SDS011;14780;48.316;-1.050;2023-02-12T07:32:03;3.45;;;1.80;;
18568;SDS011;14780;48.316;-1.050;2023-02-12T07:34:48;2.00;;;1.80;;
18568;SDS011;14780;48.316;-1.050;2023-02-12T07:37:32;2.55;;;1.98;;
18568;SDS011;14780;48.316;-1.050;2023-02-12T07:40:17;2.08;;;1.80;;
18568;SDS011;14780;48.316;-1.050;2023-02-12T07:43:02;3.65;;;1.88;;
18568;SDS011;14780;48.316;-1.050;2023-02-12T07:45:47;2.75;;;1.95;;
18568;SDS011;14780;48.316;-1.050;2023-02-12T07:48:31;2.75;;;2.08;;
18568;SDS011;14780;48.316;-1.050;2023-02-12T07:51:16;1.80;;;1.70;;
18568;SDS011;14780;48.316;-1.050;2023-02-12T07:54:02;2.03;;;1.80;;
18568;SDS011;14780;48.316;-1.050;2023-02-12T07:56:47;3.15;;;2.00;;
18568;SDS011;14780;48.316;-1.050;2023-02-12T07:59:32;2.53;;;1.70;;
18568;SDS011;14780;48.316;-1.050;2023-02-12T08:02:17;2.38;;;1.83;;
18568;SDS011;14780;48.316;-1.050;2023-02-12T08:05:01;2.88;;;1.90;;
18568;SDS011;14780;48.316;-1.050;2023-02-12T08:07:47;2.28;;;1.80;;
18568;SDS011;14780;48.316;-1.050;2023-02-12T08:10:32;2.90;;;1.88;;
18568;SDS011;14780;48.316;-1.050;2023-02-12T08:13:16;2.28;;;1.88;;
18568;SDS011;14780;48.316;-1.050;2023-02-12T08:16:02;2.95;;;2.10;;
18568;SDS011;14780;48.316;-1.050;2023-02-12T08:18:49;2.10;;;1.70;;
18568;SDS011;14780;48.316;-1.050;2023-02-12T08:21:34;3.85;;;2.08;;
18568;SDS011;14780;48.316;-1.050;2023-02-12T08:24:19;3.13;;;2.00;;
18568;SDS011;14780;48.316;-1.050;2023-02-12T08:27:04;2.67;;;1.77;;
18568;SDS011;14780;48.316;-1.050;2023-02-12T08:29:49;4.97;;;2.35;;
18568;SDS011;14780;48.316;-1.050;2023-02-12T08:32:34;4.03;;;1.63;;
18568;SDS011;14780;48.316;-1.050;2023-02-12T08:35:18;2.15;;;1.92;;
18568;SDS011;14780;48.316;-1.050;2023-02-12T08:38:03;2.40;;;1.70;;
18568;SDS011;14780;48.316;-1.050;2023-02-12T08:40:48;1.80;;;1.60;;
18568;SDS011;14780;48.316;-1.050;2023-02-12T08:43:32;3.40;;;1.90;;
18568;SDS011;14780;48.316;-1.050;2023-02-12T08:46:19;3.70;;;2.10;;
18568;SDS011;14780;48.316;-1.050;2023-02-12T08:49:07;1.95;;;1.52;;
18568;SDS011;14780;48.316;-1.050;2023-02-12T08:51:57;10.13;;;1.90;;
18568;SDS011;14780;48.316;-1.050;2023-02-12T08:54:44;6.45;;;2.10;;
18568;SDS011;14780;48.316;-1.050;2023-02-12T08:57:29;4.28;;;2.10;;
18568;SDS011;14780;48.316;-1.050;2023-02-12T09:00:14;4.47;;;1.90;;
18568;SDS011;14780;48.316;-1.050;2023-02-12T09:02:59;3.67;;;2.00;;
18568;SDS011;14780;48.316;-1.050;2023-02-12T09:05:44;5.13;;;1.48;;
18568;SDS011;14780;48.316;-1.050;2023-02-12T09:08:29;5.00;;;1.90;;
18568;SDS011;14780;48.316;-1.050;2023-02-12T09:11:15;3.65;;;2.00;;
18568;SDS011;14780;48.316;-1.050;2023-02-12T09:14:06;3.70;;;1.80;;
18568;SDS011;14780;48.316;-1.050;2023-02-12T09:16:53;3.63;;;2.00;;
18568;SDS011;14780;48.316;-1.050;2023-02-12T09:19:40;6.72;;;1.92;;
18568;SDS011;14780;48.316;-1.050;2023-02-12T09:22:24;5.10;;;2.00;;
18568;SDS011;14780;48.316;-1.050;2023-02-12T09:25:09;4.30;;;2.10;;
18568;SDS011;14780;48.316;-1.050;2023-02-12T09:27:54;5.78;;;1.80;;
18568;SDS011;14780;48.316;-1.050;2023-02-12T09:30:39;3.15;;;1.90;;
18568;SDS011;14780;48.316;-1.050;2023-02-12T09:33:24;2.45;;;1.70;;
18568;SDS011;14780;48.316;-1.050;2023-02-12T09:36:10;3.17;;;1.90;;
18568;SDS011;14780;48.316;-1.050;2023-02-12T09:38:57;3.97;;;2.08;;
18568;SDS011;14780;48.316;-1.050;2023-02-12T09:53:31;3.40;;;2.20;;
18568;SDS011;14780;48.316;-1.050;2023-02-12T09:56:22;3.00;;;1.90;;
18568;SDS011;14780;48.316;-1.050;2023-02-12T09:59:10;3.00;;;2.38;;
18568;SDS011;14780;48.316;-1.050;2023-02-12T10:02:01;2.80;;;2.25;;
18568;SDS011;14780;48.316;-1.050;2023-02-12T10:04:49;3.38;;;2.10;;
18568;SDS011;14780;48.316;-1.050;2023-02-12T10:14:10;3.30;;;2.10;;
18568;SDS011;14780;48.316;-1.050;2023-02-12T10:17:17;3.08;;;2.40;;
18568;SDS011;14780;48.316;-1.050;2023-02-12T10:28:37;3.10;;;2.33;;
18568;SDS011;14780;48.316;-1.050;2023-02-12T10:31:34;2.50;;;1.98;;
18568;SDS011;14780;48.316;-1.050;2023-02-12T10:34:24;3.35;;;2.40;;
18568;SDS011;14780;48.316;-1.050;2023-02-12T10:40:25;4.00;;;2.50;;
18568;SDS011;14780;48.316;-1.050;2023-02-12T10:43:16;5.35;;;2.40;;
18568;SDS011;14780;48.316;-1.050;2023-02-12T10:46:01;6.10;;;2.90;;
18568;SDS011;14780;48.316;-1.050;2023-02-12T10:48:50;5.60;;;3.63;;
18568;SDS011;14780;48.316;-1.050;2023-02-12T10:55:00;6.72;;;3.72;;
18568;SDS011;14780;48.316;-1.050;2023-02-12T10:57:45;5.28;;;3.60;;
18568;SDS011;14780;48.316;-1.050;2023-02-12T11:00:36;5.65;;;2.97;;
18568;SDS011;14780;48.316;-1.050;2023-02-12T11:06:31;5.45;;;2.95;;
18568;SDS011;14780;48.316;-1.050;2023-02-12T11:09:26;6.45;;;2.97;;
18568;SDS011;14780;48.316;-1.050;2023-02-12T11:12:18;7.00;;;2.70;;
18568;SDS011;14780;48.316;-1.050;2023-02-12T11:15:16;6.53;;;2.92;;
18568;SDS011;14780;48.316;-1.050;2023-02-12T11:18:06;5.75;;;2.50;;
18568;SDS011;14780;48.316;-1.050;2023-02-12T11:20:56;7.13;;;2.50;;
18568;SDS011;14780;48.316;-1.050;2023-02-12T11:23:53;4.25;;;2.40;;
18568;SDS011;14780;48.316;-1.050;2023-02-12T11:26:38;4.63;;;2.80;;
18568;SDS011;14780;48.316;-1.050;2023-02-12T11:29:23;7.40;;;2.72;;
18568;SDS011;14780;48.316;-1.050;2023-02-12T11:32:08;4.20;;;2.40;;
18568;SDS011;14780;48.316;-1.050;2023-02-12T11:35:15;6.32;;;2.47;;
18568;SDS011;14780;48.316;-1.050;2023-02-12T11:38:14;7.32;;;2.60;;
18568;SDS011;14780;48.316;-1.050;2023-02-12T11:41:21;7.75;;;2.47;;
18568;SDS011;14780;48.316;-1.050;2023-02-12T11:44:47;5.82;;;2.20;;
18568;SDS011;14780;48.316;-1.050;2023-02-12T11:47:25;6.35;;;2.40;;
18568;SDS011;14780;48.316;-1.050;2023-02-12T11:53:16;8.07;;;2.83;;
18568;SDS011;14780;48.316;-1.050;2023-02-12T11:56:06;7.85;;;3.05;;
18568;SDS011;14780;48.316;-1.050;2023-02-12T11:58:53;6.85;;;2.92;;
18568;SDS011;14780;48.316;-1.050;2023-02-12T12:02:15;8.70;;;3.00;;
18568;SDS011;14780;48.316;-1.050;2023-02-12T12:05:11;3.83;;;2.58;;
18568;SDS011;14780;48.316;-1.050;2023-02-12T12:08:02;7.15;;;2.60;;
18568;SDS011;14780;48.316;-1.050;2023-02-12T12:17:01;8.20;;;2.85;;
18568;SDS011;14780;48.316;-1.050;2023-02-12T12:20:14;15.70;;;4.68;;
18568;SDS011;14780;48.316;-1.050;2023-02-12T12:23:08;10.30;;;4.43;;
18568;SDS011;14780;48.316;-1.050;2023-02-12T12:26:19;8.88;;;3.42;;
18568;SDS011;14780;48.316;-1.050;2023-02-12T12:29:21;10.38;;;5.30;;
18568;SDS011;14780;48.316;-1.050;2023-02-12T12:32:24;9.25;;;5.88;;
18568;SDS011;14780;48.316;-1.050;2023-02-12T12:35:14;18.77;;;9.10;;
18568;SDS011;14780;48.316;-1.050;2023-02-12T12:53:17;8.68;;;4.82;;
18568;SDS011;14780;48.316;-1.050;2023-02-12T13:05:40;8.10;;;3.60;;
18568;SDS011;14780;48.316;-1.050;2023-02-12T13:14:44;6.32;;;3.10;;
18568;SDS011;14780;48.316;-1.050;2023-02-12T13:17:48;7.43;;;2.90;;
18568;SDS011;14780;48.316;-1.050;2023-02-12T13:20:49;4.07;;;2.47;;
18568;SDS011;14780;48.316;-1.050;2023-02-12T13:23:52;3.90;;;2.58;;
18568;SDS011;14780;48.316;-1.050;2023-02-12T13:27:01;4.22;;;2.38;;
18568;SDS011;14780;48.316;-1.050;2023-02-12T13:30:09;7.78;;;2.83;;
18568;SDS011;14780;48.316;-1.050;2023-02-12T13:33:10;4.35;;;2.45;;
18568;SDS011;14780;48.316;-1.050;2023-02-12T13:36:05;4.95;;;2.28;;
18568;SDS011;14780;48.316;-1.050;2023-02-12T13:38:58;4.53;;;2.00;;
18568;SDS011;14780;48.316;-1.050;2023-02-12T13:56:27;5.20;;;2.13;;
18568;SDS011;14780;48.316;-1.050;2023-02-12T14:05:29;5.03;;;1.98;;
18568;SDS011;14780;48.316;-1.050;2023-02-12T14:08:33;3.25;;;2.03;;
18568;SDS011;14780;48.316;-1.050;2023-02-12T14:11:21;3.28;;;1.95;;
18568;SDS011;14780;48.316;-1.050;2023-02-12T14:14:08;3.22;;;2.00;;
18568;SDS011;14780;48.316;-1.050;2023-02-12T14:16:53;4.35;;;2.22;;
18568;SDS011;14780;48.316;-1.050;2023-02-12T14:25:41;4.18;;;1.80;;
18568;SDS011;14780;48.316;-1.050;2023-02-12T14:28:41;4.00;;;2.00;;
18568;SDS011;14780;48.316;-1.050;2023-02-12T14:31:36;1.60;;;1.50;;
18568;SDS011;14780;48.316;-1.050;2023-02-12T14:37:10;3.03;;;1.85;;
18568;SDS011;14780;48.316;-1.050;2023-02-12T14:43:29;8.18;;;2.00;;
18568;SDS011;14780;48.316;-1.050;2023-02-12T14:49:15;3.38;;;1.75;;
18568;SDS011;14780;48.316;-1.050;2023-02-12T14:52:17;4.35;;;2.20;;
18568;SDS011;14780;48.316;-1.050;2023-02-12T14:55:04;4.88;;;2.25;;
18568;SDS011;14780;48.316;-1.050;2023-02-12T14:58:02;2.92;;;2.10;;
18568;SDS011;14780;48.316;-1.050;2023-02-12T15:00:51;3.72;;;1.73;;
18568;SDS011;14780;48.316;-1.050;2023-02-12T15:03:39;4.43;;;2.00;;
18568;SDS011;14780;48.316;-1.050;2023-02-12T15:06:35;2.97;;;1.98;;
18568;SDS011;14780;48.316;-1.050;2023-02-12T15:09:28;3.33;;;1.83;;
18568;SDS011;14780;48.316;-1.050;2023-02-12T15:12:31;3.45;;;1.95;;
18568;SDS011;14780;48.316;-1.050;2023-02-12T15:19:09;3.33;;;2.10;;
18568;SDS011;14780;48.316;-1.050;2023-02-12T15:22:20;2.60;;;1.83;;
18568;SDS011;14780;48.316;-1.050;2023-02-12T15:25:31;2.80;;;2.03;;
18568;SDS011;14780;48.316;-1.050;2023-02-12T15:28:19;3.20;;;2.05;;
18568;SDS011;14780;48.316;-1.050;2023-02-12T15:31:08;3.47;;;2.15;;
18568;SDS011;14780;48.316;-1.050;2023-02-12T15:33:58;3.50;;;2.05;;
18568;SDS011;14780;48.316;-1.050;2023-02-12T15:36:45;3.83;;;2.10;;
18568;SDS011;14780;48.316;-1.050;2023-02-12T15:39:40;3.55;;;2.13;;
18568;SDS011;14780;48.316;-1.050;2023-02-12T15:50:53;4.50;;;2.28;;
18568;SDS011;14780;48.316;-1.050;2023-02-12T15:53:48;2.67;;;2.05;;
18568;SDS011;14780;48.316;-1.050;2023-02-12T15:56:34;4.07;;;2.40;;
18568;SDS011;14780;48.316;-1.050;2023-02-12T15:59:24;4.75;;;2.10;;
18568;SDS011;14780;48.316;-1.050;2023-02-12T16:02:16;3.55;;;2.33;;
18568;SDS011;14780;48.316;-1.050;2023-02-12T16:05:10;7.60;;;4.35;;
18568;SDS011;14780;48.316;-1.050;2023-02-12T16:07:59;6.70;;;4.15;;
18568;SDS011;14780;48.316;-1.050;2023-02-12T16:10:44;8.07;;;3.90;;
18568;SDS011;14780;48.316;-1.050;2023-02-12T16:13:33;7.22;;;4.50;;
18568;SDS011;14780;48.316;-1.050;2023-02-12T16:16:23;8.23;;;4.00;;
18568;SDS011;14780;48.316;-1.050;2023-02-12T16:19:26;8.63;;;4.07;;
18568;SDS011;14780;48.316;-1.050;2023-02-12T16:22:14;6.40;;;3.67;;
18568;SDS011;14780;48.316;-1.050;2023-02-12T16:25:02;6.50;;;3.45;;
18568;SDS011;14780;48.316;-1.050;2023-02-12T16:30:47;6.82;;;3.97;;
18568;SDS011;14780;48.316;-1.050;2023-02-12T16:39:08;6.47;;;3.45;;
18568;SDS011;14780;48.316;-1.050;2023-02-12T16:42:26;6.95;;;3.40;;
18568;SDS011;14780;48.316;-1.050;2023-02-12T16:45:33;7.65;;;3.40;;
18568;SDS011;14780;48.316;-1.050;2023-02-12T16:48:20;5.85;;;3.42;;
18568;SDS011;14780;48.316;-1.050;2023-02-12T16:51:30;6.40;;;3.20;;
18568;SDS011;14780;48.316;-1.050;2023-02-12T16:54:27;6.32;;;3.08;;
18568;SDS011;14780;48.316;-1.050;2023-02-12T16:57:13;9.05;;;3.40;;
18568;SDS011;14780;48.316;-1.050;2023-02-12T16:59:58;6.55;;;3.38;;
18568;SDS011;14780;48.316;-1.050;2023-02-12T17:02:43;5.88;;;3.50;;
18568;SDS011;14780;48.316;-1.050;2023-02-12T17:05:29;5.90;;;3.25;;
18568;SDS011;14780;48.316;-1.050;2023-02-12T17:08:15;6.28;;;3.47;;
18568;SDS011;14780;48.316;-1.050;2023-02-12T17:11:01;4.15;;;2.78;;
18568;SDS011;14780;48.316;-1.050;2023-02-12T17:13:46;5.40;;;3.25;;
18568;SDS011;14780;48.316;-1.050;2023-02-12T17:16:32;5.50;;;3.00;;
18568;SDS011;14780;48.316;-1.050;2023-02-12T17:19:17;6.93;;;3.15;;
18568;SDS011;14780;48.316;-1.050;2023-02-12T17:22:01;4.43;;;3.20;;
18568;SDS011;14780;48.316;-1.050;2023-02-12T17:24:48;6.68;;;3.60;;
18568;SDS011;14780;48.316;-1.050;2023-02-12T17:27:34;6.32;;;3.30;;
18568;SDS011;14780;48.316;-1.050;2023-02-12T17:30:18;6.57;;;3.78;;
18568;SDS011;14780;48.316;-1.050;2023-02-12T17:33:04;8.80;;;4.05;;
18568;SDS011;14780;48.316;-1.050;2023-02-12T17:35:49;6.07;;;4.22;;
18568;SDS011;14780;48.316;-1.050;2023-02-12T17:38:34;7.20;;;4.10;;
18568;SDS011;14780;48.316;-1.050;2023-02-12T17:41:19;6.45;;;4.10;;
18568;SDS011;14780;48.316;-1.050;2023-02-12T17:44:04;7.03;;;4.50;;
18568;SDS011;14780;48.316;-1.050;2023-02-12T17:46:49;7.95;;;4.30;;
18568;SDS011;14780;48.316;-1.050;2023-02-12T17:49:34;6.97;;;3.78;;
18568;SDS011;14780;48.316;-1.050;2023-02-12T17:52:18;5.97;;;4.15;;
18568;SDS011;14780;48.316;-1.050;2023-02-12T17:55:03;6.30;;;3.78;;
18568;SDS011;14780;48.316;-1.050;2023-02-12T17:57:53;7.47;;;4.50;;
18568;SDS011;14780;48.316;-1.050;2023-02-12T18:00:39;5.95;;;4.13;;
18568;SDS011;14780;48.316;-1.050;2023-02-12T18:03:24;5.55;;;3.60;;
18568;SDS011;14780;48.316;-1.050;2023-02-12T18:06:09;5.35;;;3.92;;
18568;SDS011;14780;48.316;-1.050;2023-02-12T18:08:57;6.25;;;4.00;;
18568;SDS011;14780;48.316;-1.050;2023-02-12T18:11:44;6.80;;;3.63;;
18568;SDS011;14780;48.316;-1.050;2023-02-12T18:14:28;6.63;;;4.13;;
18568;SDS011;14780;48.316;-1.050;2023-02-12T18:17:13;7.93;;;3.90;;
18568;SDS011;14780;48.316;-1.050;2023-02-12T18:19:58;5.50;;;3.80;;
18568;SDS011;14780;48.316;-1.050;2023-02-12T18:22:42;6.63;;;4.15;;
18568;SDS011;14780;48.316;-1.050;2023-02-12T18:25:28;6.75;;;4.03;;
18568;SDS011;14780;48.316;-1.050;2023-02-12T18:28:13;7.10;;;3.90;;
18568;SDS011;14780;48.316;-1.050;2023-02-12T18:30:57;5.45;;;3.70;;
18568;SDS011;14780;48.316;-1.050;2023-02-12T18:33:42;5.40;;;3.63;;
18568;SDS011;14780;48.316;-1.050;2023-02-12T18:36:27;4.80;;;3.50;;
18568;SDS011;14780;48.316;-1.050;2023-02-12T18:39:12;6.00;;;3.72;;
18568;SDS011;14780;48.316;-1.050;2023-02-12T18:41:57;13.82;;;7.55;;
18568;SDS011;14780;48.316;-1.050;2023-02-12T18:44:41;13.32;;;8.20;;
18568;SDS011;14780;48.316;-1.050;2023-02-12T18:47:27;10.43;;;5.90;;
18568;SDS011;14780;48.316;-1.050;2023-02-12T18:50:12;9.55;;;6.50;;
18568;SDS011;14780;48.316;-1.050;2023-02-12T18:52:57;10.45;;;6.32;;
18568;SDS011;14780;48.316;-1.050;2023-02-12T18:55:41;12.32;;;6.30;;
18568;SDS011;14780;48.316;-1.050;2023-02-12T18:58:26;14.15;;;5.97;;
18568;SDS011;14780;48.316;-1.050;2023-02-12T19:01:14;11.90;;;5.82;;
18568;SDS011;14780;48.316;-1.050;2023-02-12T19:04:01;12.65;;;5.57;;
18568;SDS011;14780;48.316;-1.050;2023-02-12T19:06:50;10.50;;;4.90;;
18568;SDS011;14780;48.316;-1.050;2023-02-12T19:09:36;11.30;;;5.38;;
18568;SDS011;14780;48.316;-1.050;2023-02-12T19:12:20;7.03;;;4.47;;
18568;SDS011;14780;48.316;-1.050;2023-02-12T19:15:05;6.88;;;4.63;;
18568;SDS011;14780;48.316;-1.050;2023-02-12T19:17:51;7.78;;;5.25;;
18568;SDS011;14780;48.316;-1.050;2023-02-12T19:20:38;9.40;;;4.68;;
18568;SDS011;14780;48.316;-1.050;2023-02-12T19:23:23;13.48;;;5.80;;
18568;SDS011;14780;48.316;-1.050;2023-02-12T19:26:09;10.30;;;5.05;;
18568;SDS011;14780;48.316;-1.050;2023-02-12T19:28:56;9.82;;;5.15;;
18568;SDS011;14780;48.316;-1.050;2023-02-12T19:31:42;8.43;;;5.00;;
18568;SDS011;14780;48.316;-1.050;2023-02-12T19:34:28;10.70;;;5.30;;
18568;SDS011;14780;48.316;-1.050;2023-02-12T19:37:13;9.52;;;4.78;;
18568;SDS011;14780;48.316;-1.050;2023-02-12T19:39:58;7.50;;;4.75;;
18568;SDS011;14780;48.316;-1.050;2023-02-12T19:42:42;8.13;;;4.28;;
18568;SDS011;14780;48.316;-1.050;2023-02-12T19:45:27;7.50;;;4.07;;
18568;SDS011;14780;48.316;-1.050;2023-02-12T19:48:11;6.47;;;4.22;;
18568;SDS011;14780;48.316;-1.050;2023-02-12T19:50:56;6.53;;;4.00;;